Darstellungsparameter: Aktuell verwendete Einstellungen:
Skalierung der Graphiken ... ?
xyx+y,   Skalierungsfaktor:      Skalierung: Modus: x, Faktor: 1
Darstellungszeitraum ... ?
Vom - - bis: - -   Zeitraum: 15.08.2014 - 15.08.2014
Min/Max/Avg-Anzeige ... ?
Zeige MMA aktuell
Zeige MMA Monat
Zeige MMA alles
Zeige --A aktuell
Zeige --A Monat
Zeige --A alles
Keine MMA-Anzeige
MMA:
Keine MMA-Graphiken
MMA-Basis: 15.08.2014 - 15.08.2014
Quicknavigation für Darstellung... ?
Tage:      1T, 2T, 3T, 5T -1T -2T -3T -5T +1T +2T +3T +5T
Wochen: 1W, 2W, 3W -1W -2W -3W +1W +2W +3W
Monate: 1M, 3M, 6M -1M -3M -6M +1M +3M +6M
Jahre:    1J, 3J, 5J, 10J -1J -3J -5J -10J +1J +3J +5J +10J
Nutze für die Darstellung ... ?
Originaldaten oder Mittelwerte auf ...
Stundenbasis Tagesbasis Wochenbasis
Monatsbasis Jahresbasis      Datenbasis: Original-Daten
Darstellen als:
Statistik (Auto) Statistik J:M      Darstellung:
Zur Graphik,    zurück zur Übersicht aller Sensoren.
 
Tabellarische Datenbersicht: ?
 
Sensor: Nr:Datum:Temp:Feuchte:Taupunkt:
Aussen-T/F 1 15-08-2014 00:00:00 14.7 C 88 % 12.73 C
2 15-08-2014 00:05:00 14.5 C 89 % 12.71 C
3 15-08-2014 00:10:00 14.3 C 90 % 12.68 C
4 15-08-2014 00:15:00 14.2 C 90 % 12.58 C
5 15-08-2014 00:20:00 14.2 C 89 % 12.41 C
6 15-08-2014 00:25:00 14.2 C 89 % 12.41 C
7 15-08-2014 00:30:00 14.2 C 89 % 12.41 C
8 15-08-2014 00:35:00 14.2 C 89 % 12.41 C
9 15-08-2014 00:40:00 14.2 C 89 % 12.41 C
10 15-08-2014 00:45:00 14.2 C 89 % 12.41 C
11 15-08-2014 00:50:00 14.2 C 89 % 12.41 C
12 15-08-2014 00:55:00 14.1 C 89 % 12.32 C
13 15-08-2014 01:00:00 14 C 89 % 12.22 C
14 15-08-2014 01:05:00 13.9 C 90 % 12.29 C
15 15-08-2014 01:10:00 13.9 C 90 % 12.29 C
16 15-08-2014 01:15:00 13.8 C 90 % 12.19 C
17 15-08-2014 01:20:00 13.6 C 90 % 11.99 C
18 15-08-2014 01:25:00 13.5 C 90 % 11.89 C
19 15-08-2014 01:30:00 13.4 C 91 % 11.96 C
20 15-08-2014 01:35:00 13.4 C 91 % 11.96 C
21 15-08-2014 01:40:00 13.3 C 91 % 11.86 C
22 15-08-2014 01:45:00 13.3 C 91 % 11.86 C
23 15-08-2014 01:50:00 13.3 C 91 % 11.86 C
24 15-08-2014 01:55:00 13.3 C 91 % 11.86 C
25 15-08-2014 02:00:00 13.4 C 90 % 11.79 C
Sensor: Nr:Datum:Temp:Feuchte:Taupunkt:
Aussen-T/F 26 15-08-2014 02:05:00 13.6 C 90 % 11.99 C
27 15-08-2014 02:10:00 13.6 C 90 % 11.99 C
28 15-08-2014 02:15:00 13.6 C 90 % 11.99 C
29 15-08-2014 02:20:00 13.6 C 90 % 11.99 C
30 15-08-2014 02:25:00 13.7 C 90 % 12.09 C
31 15-08-2014 02:30:00 13.7 C 89 % 11.92 C
32 15-08-2014 02:35:00 13.6 C 90 % 11.99 C
33 15-08-2014 02:40:00 13.6 C 90 % 11.99 C
34 15-08-2014 02:45:00 13.5 C 90 % 11.89 C
35 15-08-2014 02:50:00 13.4 C 90 % 11.79 C
36 15-08-2014 02:55:00 13.3 C 91 % 11.86 C
37 15-08-2014 03:00:00 13.2 C 91 % 11.76 C
38 15-08-2014 03:05:00 13.1 C 92 % 11.83 C
39 15-08-2014 03:10:00 13 C 92 % 11.73 C
40 15-08-2014 03:15:00 12.9 C 92 % 11.63 C
41 15-08-2014 03:20:00 12.9 C 93 % 11.8 C
42 15-08-2014 03:25:00 12.9 C 93 % 11.8 C
43 15-08-2014 03:30:00 12.9 C 93 % 11.8 C
44 15-08-2014 03:35:00 12.9 C 94 % 11.96 C
45 15-08-2014 03:40:00 12.9 C 94 % 11.96 C
46 15-08-2014 03:45:00 13 C 94 % 12.06 C
47 15-08-2014 03:50:00 13.1 C 94 % 12.16 C
48 15-08-2014 03:55:00 13.1 C 94 % 12.16 C
49 15-08-2014 04:00:00 13.1 C 94 % 12.16 C
50 15-08-2014 04:05:00 13.1 C 94 % 12.16 C
Sensor: Nr:Datum:Temp:Feuchte:Taupunkt:
Aussen-T/F 51 15-08-2014 04:10:00 13.1 C 94 % 12.16 C
52 15-08-2014 04:15:00 13.2 C 94 % 12.26 C
53 15-08-2014 04:20:00 13.2 C 94 % 12.26 C
54 15-08-2014 04:25:00 13.2 C 94 % 12.26 C
55 15-08-2014 04:30:00 13.2 C 94 % 12.26 C
56 15-08-2014 04:35:00 13.2 C 94 % 12.26 C
57 15-08-2014 04:40:00 13.3 C 94 % 12.36 C
58 15-08-2014 04:45:00 13.3 C 94 % 12.36 C
59 15-08-2014 04:50:00 13.3 C 94 % 12.36 C
60 15-08-2014 04:55:00 13.3 C 94 % 12.36 C
61 15-08-2014 05:00:00 13.3 C 94 % 12.36 C
62 15-08-2014 05:05:00 13.4 C 94 % 12.45 C
63 15-08-2014 05:10:00 13.4 C 94 % 12.45 C
64 15-08-2014 05:15:00 13.4 C 94 % 12.45 C
65 15-08-2014 05:20:00 13.4 C 94 % 12.45 C
66 15-08-2014 05:25:00 13.4 C 94 % 12.45 C
67 15-08-2014 05:30:00 13.4 C 94 % 12.45 C
68 15-08-2014 05:35:00 13.4 C 94 % 12.45 C
69 15-08-2014 05:40:00 13.4 C 94 % 12.45 C
70 15-08-2014 05:45:00 13.4 C 94 % 12.45 C
71 15-08-2014 05:50:00 13.4 C 94 % 12.45 C
72 15-08-2014 05:55:00 13.4 C 94 % 12.45 C
73 15-08-2014 06:00:00 13.4 C 94 % 12.45 C
74 15-08-2014 06:05:00 13.4 C 94 % 12.45 C
75 15-08-2014 06:10:00 13.4 C 94 % 12.45 C
Sensor: Nr:Datum:Temp:Feuchte:Taupunkt:
Aussen-T/F 76 15-08-2014 06:15:00 13.5 C 94 % 12.55 C
77 15-08-2014 06:20:00 13.5 C 94 % 12.55 C
78 15-08-2014 06:25:00 13.5 C 94 % 12.55 C
79 15-08-2014 06:30:00 13.6 C 94 % 12.65 C
80 15-08-2014 06:35:00 13.6 C 93 % 12.49 C
81 15-08-2014 06:40:00 13.6 C 94 % 12.65 C
82 15-08-2014 06:45:00 13.6 C 93 % 12.49 C
83 15-08-2014 06:50:00 13.6 C 93 % 12.49 C
84 15-08-2014 06:55:00 13.6 C 94 % 12.65 C
85 15-08-2014 07:00:00 13.7 C 94 % 12.75 C
86 15-08-2014 07:05:00 13.7 C 93 % 12.59 C
87 15-08-2014 07:10:00 13.7 C 93 % 12.59 C
88 15-08-2014 07:15:00 13.7 C 93 % 12.59 C
89 15-08-2014 07:20:00 13.7 C 93 % 12.59 C
90 15-08-2014 07:25:00 13.7 C 93 % 12.59 C
91 15-08-2014 07:30:00 13.8 C 93 % 12.69 C
92 15-08-2014 07:35:00 13.8 C 94 % 12.85 C
93 15-08-2014 07:40:00 13.8 C 94 % 12.85 C
94 15-08-2014 07:45:00 13.8 C 94 % 12.85 C
95 15-08-2014 07:50:00 13.8 C 94 % 12.85 C
96 15-08-2014 07:55:00 13.8 C 94 % 12.85 C
97 15-08-2014 08:00:00 13.9 C 94 % 12.95 C
98 15-08-2014 08:05:00 13.9 C 94 % 12.95 C
99 15-08-2014 08:10:00 14 C 94 % 13.05 C
100 15-08-2014 08:15:00 14 C 93 % 12.89 C
Sensor: Nr:Datum:Temp:Feuchte:Taupunkt:
Aussen-T/F 101 15-08-2014 08:20:00 14.1 C 93 % 12.99 C
102 15-08-2014 08:25:00 14.2 C 92 % 12.92 C
103 15-08-2014 08:30:00 14.2 C 92 % 12.92 C
104 15-08-2014 08:35:00 14.2 C 91 % 12.75 C
105 15-08-2014 08:40:00 14.3 C 90 % 12.68 C
106 15-08-2014 08:45:00 14.3 C 91 % 12.85 C
107 15-08-2014 08:50:00 14.3 C 90 % 12.68 C
108 15-08-2014 08:55:00 14.4 C 91 % 12.95 C
109 15-08-2014 09:00:00 14.5 C 91 % 13.05 C
110 15-08-2014 09:05:00 14.6 C 92 % 13.32 C
111 15-08-2014 09:10:00 14.7 C 91 % 13.25 C
112 15-08-2014 09:15:00 14.6 C 90 % 12.98 C
113 15-08-2014 09:20:00 14.7 C 92 % 13.41 C
114 15-08-2014 09:25:00 14.7 C 92 % 13.41 C
115 15-08-2014 09:30:00 14.7 C 91 % 13.25 C
116 15-08-2014 09:35:00 14.7 C 92 % 13.41 C
117 15-08-2014 09:40:00 14.7 C 92 % 13.41 C
118 15-08-2014 09:45:00 14.7 C 92 % 13.41 C
119 15-08-2014 09:50:00 14.8 C 92 % 13.51 C
120 15-08-2014 09:55:00 14.8 C 92 % 13.51 C
121 15-08-2014 10:00:00 14.9 C 92 % 13.61 C
122 15-08-2014 10:05:00 15.1 C 92 % 13.81 C
123 15-08-2014 10:10:00 15.2 C 91 % 13.74 C
124 15-08-2014 10:15:00 15.3 C 92 % 14.01 C
125 15-08-2014 10:20:00 15.3 C 90 % 13.67 C
Sensor: Nr:Datum:Temp:Feuchte:Taupunkt:
Aussen-T/F 126 15-08-2014 10:25:00 15.3 C 90 % 13.67 C
127 15-08-2014 10:30:00 15.4 C 91 % 13.94 C
128 15-08-2014 10:35:00 15.4 C 90 % 13.77 C
129 15-08-2014 10:40:00 15.4 C 89 % 13.6 C
130 15-08-2014 10:45:00 15.6 C 90 % 13.97 C
131 15-08-2014 10:50:00 15.6 C 88 % 13.62 C
132 15-08-2014 10:55:00 15.6 C 88 % 13.62 C
133 15-08-2014 11:00:00 15.6 C 89 % 13.79 C
134 15-08-2014 11:05:00 15.6 C 88 % 13.62 C
135 15-08-2014 11:10:00 15.6 C 88 % 13.62 C
136 15-08-2014 11:15:00 15.7 C 89 % 13.89 C
137 15-08-2014 11:20:00 15.7 C 87 % 13.54 C
138 15-08-2014 11:25:00 15.7 C 87 % 13.54 C
139 15-08-2014 11:30:00 15.7 C 87 % 13.54 C
140 15-08-2014 11:35:00 15.8 C 88 % 13.82 C
141 15-08-2014 11:40:00 15.8 C 87 % 13.64 C
142 15-08-2014 11:45:00 15.7 C 87 % 13.54 C
143 15-08-2014 11:50:00 15.7 C 89 % 13.89 C
144 15-08-2014 11:55:00 15.7 C 89 % 13.89 C
145 15-08-2014 12:00:00 15.7 C 90 % 14.06 C
146 15-08-2014 12:05:00 15.7 C 90 % 14.06 C
147 15-08-2014 12:10:00 15.7 C 90 % 14.06 C
148 15-08-2014 12:15:00 15.7 C 90 % 14.06 C
149 15-08-2014 12:20:00 15.9 C 90 % 14.26 C
150 15-08-2014 12:25:00 15.9 C 90 % 14.26 C
Sensor: Nr:Datum:Temp:Feuchte:Taupunkt:
Aussen-T/F 151 15-08-2014 13:15:00 16.6 C 82 % 13.52 C
152 15-08-2014 13:20:00 16.4 C 84 % 13.69 C
153 15-08-2014 13:25:00 16.4 C 86 % 14.05 C
154 15-08-2014 13:30:00 16.4 C 85 % 13.87 C
155 15-08-2014 13:35:00 16.3 C 85 % 13.77 C
156 15-08-2014 13:40:00 16.1 C 86 % 13.76 C
157 15-08-2014 13:45:00 16 C 88 % 14.01 C
158 15-08-2014 13:50:00 15.8 C 88 % 13.82 C
159 15-08-2014 13:55:00 15.7 C 88 % 13.72 C
160 15-08-2014 14:00:00 15.8 C 89 % 13.99 C
161 15-08-2014 14:05:00 15.9 C 89 % 14.09 C
162 15-08-2014 14:10:00 15.9 C 88 % 13.92 C
163 15-08-2014 14:15:00 16.1 C 88 % 14.11 C
164 15-08-2014 14:20:00 16.2 C 87 % 14.03 C
165 15-08-2014 14:25:00 16.3 C 86 % 13.95 C
166 15-08-2014 14:30:00 16.2 C 88 % 14.21 C
167 15-08-2014 14:35:00 15.8 C 88 % 13.82 C
168 15-08-2014 14:40:00 15.3 C 88 % 13.33 C
169 15-08-2014 14:45:00 15.1 C 90 % 13.47 C
170 15-08-2014 14:50:00 14.9 C 91 % 13.44 C
171 15-08-2014 14:55:00 14.7 C 92 % 13.41 C
172 15-08-2014 15:00:00 14.7 C 93 % 13.58 C
173 15-08-2014 15:05:00 14.7 C 94 % 13.74 C
174 15-08-2014 15:10:00 14.8 C 94 % 13.84 C
175 15-08-2014 15:15:00 14.9 C 94 % 13.94 C
Sensor: Nr:Datum:Temp:Feuchte:Taupunkt:
Aussen-T/F 176 15-08-2014 15:20:00 15.1 C 94 % 14.14 C
177 15-08-2014 15:25:00 15.2 C 92 % 13.91 C
178 15-08-2014 15:30:00 15.6 C 93 % 14.47 C
179 15-08-2014 15:35:00 15.8 C 92 % 14.5 C
180 15-08-2014 15:40:00 15.9 C 91 % 14.43 C
181 15-08-2014 15:45:00 15.9 C 89 % 14.09 C
182 15-08-2014 15:50:00 15.9 C 89 % 14.09 C
183 15-08-2014 15:55:00 15.9 C 88 % 13.92 C
184 15-08-2014 16:00:00 16.2 C 87 % 14.03 C
185 15-08-2014 16:05:00 16.3 C 87 % 14.13 C
186 15-08-2014 16:10:00 16.4 C 87 % 14.23 C
187 15-08-2014 16:15:00 16.4 C 89 % 14.58 C
188 15-08-2014 16:20:00 16.3 C 90 % 14.66 C
189 15-08-2014 16:25:00 16 C 90 % 14.36 C
190 15-08-2014 16:30:00 15.7 C 91 % 14.24 C
191 15-08-2014 16:35:00 15.4 C 92 % 14.11 C
192 15-08-2014 16:40:00 15.1 C 93 % 13.98 C
193 15-08-2014 16:45:00 14.8 C 92 % 13.51 C
194 15-08-2014 16:50:00 14.6 C 92 % 13.32 C
195 15-08-2014 16:55:00 14.3 C 92 % 13.02 C
196 15-08-2014 17:00:00 14.2 C 93 % 13.08 C
197 15-08-2014 17:05:00 14.2 C 93 % 13.08 C
198 15-08-2014 17:10:00 14.1 C 94 % 13.15 C
199 15-08-2014 17:15:00 14.1 C 94 % 13.15 C
200 15-08-2014 17:20:00 14.2 C 95 % 13.41 C
Sensor: Nr:Datum:Temp:Feuchte:Taupunkt:
Aussen-T/F 201 15-08-2014 17:25:00 14.3 C 95 % 13.51 C
202 15-08-2014 17:30:00 14.2 C 94 % 13.25 C
203 15-08-2014 17:35:00 14.3 C 94 % 13.35 C
204 15-08-2014 17:40:00 14.5 C 94 % 13.55 C
205 15-08-2014 17:45:00 14.9 C 95 % 14.11 C
206 15-08-2014 17:50:00 15.6 C 94 % 14.64 C
207 15-08-2014 17:55:00 15.9 C 90 % 14.26 C
208 15-08-2014 18:00:00 16.4 C 91 % 14.93 C
209 15-08-2014 18:05:00 16.8 C 88 % 14.8 C
210 15-08-2014 18:10:00 17.2 C 87 % 15.02 C
211 15-08-2014 18:15:00 17.5 C 88 % 15.49 C
212 15-08-2014 18:20:00 17.6 C 86 % 15.23 C
213 15-08-2014 18:25:00 17.6 C 87 % 15.41 C
214 15-08-2014 18:30:00 17.4 C 87 % 15.21 C
215 15-08-2014 18:35:00 17.3 C 89 % 15.47 C
216 15-08-2014 18:40:00 16.9 C 90 % 15.25 C
217 15-08-2014 18:45:00 16.7 C 91 % 15.22 C
218 15-08-2014 18:50:00 16.3 C 92 % 15 C
219 15-08-2014 18:55:00 16.2 C 92 % 14.9 C
220 15-08-2014 19:00:00 15.9 C 92 % 14.6 C
221 15-08-2014 19:05:00 15.6 C 92 % 14.31 C
222 15-08-2014 19:10:00 15.2 C 93 % 14.08 C
223 15-08-2014 19:15:00 15.1 C 94 % 14.14 C
224 15-08-2014 19:20:00 15 C 94 % 14.04 C
225 15-08-2014 19:25:00 14.8 C 94 % 13.84 C
Sensor: Nr:Datum:Temp:Feuchte:Taupunkt:
Aussen-T/F 226 15-08-2014 19:30:00 14.7 C 94 % 13.74 C
227 15-08-2014 19:35:00 14.6 C 95 % 13.81 C
228 15-08-2014 19:40:00 14.5 C 95 % 13.71 C
229 15-08-2014 19:45:00 14.4 C 95 % 13.61 C
230 15-08-2014 19:50:00 14.4 C 95 % 13.61 C
231 15-08-2014 19:55:00 14.3 C 95 % 13.51 C
232 15-08-2014 20:00:00 14.3 C 96 % 13.67 C
233 15-08-2014 20:05:00 14.4 C 96 % 13.77 C
234 15-08-2014 20:10:00 14.4 C 96 % 13.77 C
235 15-08-2014 20:15:00 14.4 C 96 % 13.77 C
236 15-08-2014 20:20:00 14.4 C 96 % 13.77 C
237 15-08-2014 20:25:00 14.5 C 96 % 13.87 C
238 15-08-2014 20:30:00 14.4 C 96 % 13.77 C
239 15-08-2014 20:35:00 14.5 C 97 % 14.03 C
240 15-08-2014 20:40:00 14.5 C 97 % 14.03 C
241 15-08-2014 20:45:00 14.5 C 97 % 14.03 C
242 15-08-2014 20:50:00 14.4 C 96 % 13.77 C
243 15-08-2014 20:55:00 14.3 C 96 % 13.67 C
244 15-08-2014 21:00:00 14.3 C 96 % 13.67 C
245 15-08-2014 21:05:00 14.3 C 96 % 13.67 C
246 15-08-2014 21:10:00 14.3 C 97 % 13.83 C
247 15-08-2014 21:15:00 14.3 C 97 % 13.83 C
248 15-08-2014 21:20:00 14.2 C 97 % 13.73 C
249 15-08-2014 21:25:00 14.2 C 97 % 13.73 C
250 15-08-2014 21:30:00 14.2 C 97 % 13.73 C
Sensor: Nr:Datum:Temp:Feuchte:Taupunkt:
Aussen-T/F 251 15-08-2014 21:35:00 14.2 C 96 % 13.57 C
252 15-08-2014 21:40:00 14.1 C 96 % 13.47 C
253 15-08-2014 21:45:00 14 C 96 % 13.37 C
254 15-08-2014 21:50:00 13.9 C 96 % 13.27 C
255 15-08-2014 21:55:00 13.9 C 96 % 13.27 C
256 15-08-2014 22:00:00 13.9 C 96 % 13.27 C
257 15-08-2014 22:05:00 13.9 C 97 % 13.43 C
258 15-08-2014 22:10:00 13.8 C 97 % 13.33 C
259 15-08-2014 22:15:00 13.8 C 97 % 13.33 C
260 15-08-2014 22:20:00 13.8 C 97 % 13.33 C
261 15-08-2014 22:25:00 13.8 C 97 % 13.33 C
262 15-08-2014 22:30:00 13.8 C 97 % 13.33 C
263 15-08-2014 22:35:00 13.7 C 97 % 13.23 C
264 15-08-2014 22:40:00 13.6 C 97 % 13.13 C
265 15-08-2014 22:45:00 13.6 C 97 % 13.13 C
266 15-08-2014 22:50:00 13.6 C 97 % 13.13 C
267 15-08-2014 22:55:00 13.6 C 97 % 13.13 C
268 15-08-2014 23:00:00 13.6 C 97 % 13.13 C
269 15-08-2014 23:05:00 13.5 C 97 % 13.03 C
270 15-08-2014 23:10:00 13.4 C 97 % 12.93 C
271 15-08-2014 23:15:00 13.4 C 97 % 12.93 C
272 15-08-2014 23:20:00 13.3 C 97 % 12.83 C
273 15-08-2014 23:25:00 13.2 C 97 % 12.73 C
274 15-08-2014 23:30:00 13.2 C 97 % 12.73 C
275 15-08-2014 23:35:00 13.1 C 97 % 12.63 C
Sensor: Nr:Datum:Temp:Feuchte:Taupunkt:
Aussen-T/F 276 15-08-2014 23:40:00 13.1 C 97 % 12.63 C
277 15-08-2014 23:45:00 13.1 C 97 % 12.63 C
278 15-08-2014 23:50:00 13.2 C 97 % 12.73 C
279 15-08-2014 23:55:00 13.2 C 97 % 12.73 C

Legende:
   Min
   Max


Maximal/Minimal-Werte vom 15.08.2014 - 15.08.2014

Sensor Min Max Avg
Temp
(Aussen-T/F)
12.9 °C
15-08-2014  03:15:00
17.6 °C
15-08-2014  18:20:00
14.49 °C
Feuchte
(Aussen-T/F)
82 %
15-08-2014  13:15:00
97 %
15-08-2014  20:35:00
92.17 %
Taupunkt
(Aussen-T/F)
11.63 C
15-08-2014  03:15:00
15.49 C
15-08-2014  18:15:00
13.17 C

Die Daten stammen von einer Davis Vantage Pro 2 Wetter-Station und werden unter Linux mit der Software wview2wettercgi und aufbereitet. Alle Angaben erfolgen ohne Gewähr für ihre Vollständigkeit oder Richtigkeit.
Kontakt: Rainer Krienke krienke@uni-koblenz.de . Meine Webseiten an der Uni Koblenz oder privat.
Version: $Revision: 0.78 $